Aviation Digital Data Service (ADDS)

Output produced by METARs form (1559 UTC 03 December 2021)
found at http://www.aviationweather.gov/metar/data/
 
VTSM 031300Z 04008KT 9999 FEW020 27/22 Q1015 NOSIG
VTSM 031200Z 03007KT 9999 FEW020 27/22 Q1014 NOSIG
VTSM 031100Z 02008KT 9999 FEW020 27/22 Q1013 NOSIG
VTSM 031000Z 02008KT 9999 FEW020 27/22 Q1013 NOSIG
VTSM 030900Z 04008KT 9999 SCT020 27/23 Q1012 NOSIG
VTSM 030800Z 02009KT 9999 SCT018 27/23 Q1012 NOSIG
VTSM 030700Z 05004KT 9000 -RA FEW018 27/23 Q1013
VTSM 030600Z 03008KT 9000 -RA FEW018 27/24 Q1014
VTSM 030500Z 02011KT 9999 FEW018 30/23 Q1015
VTSM 030400Z 03007KT 9999 FEW020 30/24 Q1015
VTSM 030300Z 02007KT 9999 FEW020 29/24 Q1016
VTSM 030200Z 01005KT 9999 FEW020 29/24 Q1015
VTSM 030100Z 02007KT 9999 FEW020 28/23 Q1015
TAF VTSM 031100Z 0312/0412 03008KT 9999 FEW020